Time,TemperatureF,DewpointF,PressureIn,WindDirection,WindDirectionDegrees,WindSpeedMPH,WindSpeedGustMPH,Humidity,HourlyPrecipIn,Conditions,Clouds,dailyrainin,SolarRadiationWatts/m^2,SoftwareType,DateUTC
2013-04-24 00:02:00,43.1,39.8,30.30,NNE,17,0.0,0.0,88,0.00,CLR,,0.00,10.3,WeatherDisplay:10.37,2013-04-24 07:02:00,
2013-04-24 00:07:00,43.1,40.1,30.30,NNE,17,0.0,0.0,89,0.00,CLR,,0.00,10.3,WeatherDisplay:10.37,2013-04-24 07:07:00,
2013-04-24 00:12:00,43.0,40.0,30.30,NNE,17,0.0,0.0,89,0.00,CLR,,0.00,10.3,WeatherDisplay:10.37,2013-04-24 07:12:00,
2013-04-24 00:17:00,43.0,40.3,30.30,NNE,17,0.0,0.0,90,0.00,CLR,,0.00,10.3,WeatherDisplay:10.37,2013-04-24 07:17:00,
2013-04-24 00:22:00,42.9,40.2,30.30,NNE,17,0.0,0.0,90,0.00,CLR,,0.00,10.3,WeatherDisplay:10.37,2013-04-24 07:22:00,
2013-04-24 00:27:00,43.0,40.3,30.30,NNE,17,0.0,0.0,90,0.00,CLR,,0.00,10.3,WeatherDisplay:10.37,2013-04-24 07:27:00,
2013-04-24 00:32:00,43.0,40.6,30.30,NNE,17,0.0,0.0,91,0.00,CLR,,0.00,10.3,WeatherDisplay:10.37,2013-04-24 07:32:00,
2013-04-24 00:37:00,43.0,40.6,30.30,NNE,16,0.0,0.0,91,0.00,CLR,,0.00,10.3,WeatherDisplay:10.37,2013-04-24 07:37:00,
2013-04-24 00:42:00,42.9,40.5,30.30,NNE,16,0.0,0.0,91,0.00,CLR,,0.00,10.3,WeatherDisplay:10.37,2013-04-24 07:42:00,
2013-04-24 00:47:00,42.9,40.5,30.30,NNE,16,0.0,0.0,91,0.00,CLR,,0.00,10.3,WeatherDisplay:10.37,2013-04-24 07:47:00,
2013-04-24 00:52:00,42.9,40.5,30.30,NNE,16,0.0,0.0,91,0.00,CLR,,0.00,10.3,WeatherDisplay:10.37,2013-04-24 07:52:00,
2013-04-24 00:57:00,42.9,40.8,30.30,NNE,16,0.0,0.0,92,0.00,CLR,,0.00,10.3,WeatherDisplay:10.37,2013-04-24 07:57:00,
2013-04-24 01:02:00,43.0,40.9,30.30,NNE,16,0.0,0.0,92,0.00,CLR,,0.00,10.3,WeatherDisplay:10.37,2013-04-24 08:02:00,
2013-04-24 01:07:00,43.0,40.9,30.30,East,101,0.0,0.0,92,0.00,CLR,,0.00,10.3,WeatherDisplay:10.37,2013-04-24 08:07:00,
2013-04-24 01:12:00,43.0,40.9,30.30,SE,124,3.6,5.8,92,0.00,CLR,,0.00,10.3,WeatherDisplay:10.37,2013-04-24 08:12:00,
2013-04-24 01:17:00,43.1,41.0,30.30,ENE,73,6.6,8.1,92,0.00,CLR,,0.00,10.3,WeatherDisplay:10.37,2013-04-24 08:17:00,
2013-04-24 01:22:00,43.2,41.1,30.30,East,81,0.0,0.0,92,0.00,CLR,,0.00,10.3,WeatherDisplay:10.37,2013-04-24 08:22:00,
2013-04-24 01:27:00,43.2,41.1,30.30,East,81,0.0,0.0,92,0.00,CLR,,0.00,10.3,WeatherDisplay:10.37,2013-04-24 08:27:00,
2013-04-24 01:32:00,43.2,41.1,30.30,East,81,0.0,0.0,92,0.00,CLR,,0.00,10.3,WeatherDisplay:10.37,2013-04-24 08:32:00,
2013-04-24 01:37:00,43.1,41.0,30.31,East,81,0.0,0.0,92,0.00,CLR,,0.00,10.3,WeatherDisplay:10.37,2013-04-24 08:37:00,
2013-04-24 01:42:00,43.1,41.0,30.30,East,81,0.0,0.0,92,0.00,CLR,,0.00,10.3,WeatherDisplay:10.37,2013-04-24 08:42:00,
2013-04-24 01:47:00,43.0,40.9,30.30,East,81,0.0,0.0,92,0.00,CLR,,0.00,10.3,WeatherDisplay:10.37,2013-04-24 08:47:00,
2013-04-24 01:52:00,42.9,40.8,30.30,East,81,0.0,0.0,92,0.00,CLR,,0.00,10.3,WeatherDisplay:10.37,2013-04-24 08:52:00,
2013-04-24 01:57:00,42.8,40.7,30.30,East,81,0.0,0.0,92,0.00,CLR,,0.00,10.3,WeatherDisplay:10.37,2013-04-24 08:57:00,
2013-04-24 02:02:00,42.7,40.6,30.30,East,81,0.4,4.5,92,0.00,CLR,,0.00,10.3,WeatherDisplay:10.37,2013-04-24 09:02:00,
2013-04-24 02:07:00,42.5,40.4,30.31,ENE,74,0.0,0.0,92,0.00,CLR,,0.00,10.3,WeatherDisplay:10.37,2013-04-24 09:07:00,
2013-04-24 02:12:00,42.4,40.3,30.31,ENE,74,0.0,0.0,92,0.00,CLR,,0.00,10.3,WeatherDisplay:10.37,2013-04-24 09:12:00,
2013-04-24 02:17:00,42.2,40.1,30.30,ENE,65,5.2,6.9,92,0.00,CLR,,0.00,10.3,WeatherDisplay:10.37,2013-04-24 09:17:00,
2013-04-24 02:22:00,42.1,40.0,30.30,ENE,70,0.0,0.0,92,0.00,CLR,,0.00,10.3,WeatherDisplay:10.37,2013-04-24 09:22:00,
2013-04-24 02:27:00,41.9,39.8,30.30,ENE,70,0.0,0.0,92,0.00,CLR,,0.00,10.3,WeatherDisplay:10.37,2013-04-24 09:27:00,
2013-04-24 02:33:00,41.8,39.7,30.30,ENE,70,0.0,0.0,92,0.00,CLR,,0.00,10.3,WeatherDisplay:10.37,2013-04-24 09:33:00,
2013-04-24 02:38:00,41.7,39.6,30.30,ENE,70,0.8,4.5,92,0.00,CLR,,0.00,10.3,WeatherDisplay:10.37,2013-04-24 09:38:00,
2013-04-24 02:43:00,41.5,39.4,30.30,ENE,70,0.0,0.0,92,0.00,CLR,,0.00,10.3,WeatherDisplay:10.37,2013-04-24 09:43:00,
2013-04-24 02:48:00,41.4,39.3,30.30,ENE,70,0.0,0.0,92,0.00,CLR,,0.00,10.3,WeatherDisplay:10.37,2013-04-24 09:48:00,
2013-04-24 02:53:00,41.3,39.2,30.30,ENE,70,0.0,0.0,92,0.00,CLR,,0.00,10.3,WeatherDisplay:10.37,2013-04-24 09:53:00,
2013-04-24 02:58:00,41.3,39.2,30.30,East,97,0.0,0.0,92,0.00,CLR,,0.00,10.3,WeatherDisplay:10.37,2013-04-24 09:58:00,
2013-04-24 03:03:00,41.3,39.2,30.30,East,97,0.0,0.0,92,0.00,CLR,,0.00,10.3,WeatherDisplay:10.37,2013-04-24 10:03:00,
2013-04-24 03:08:00,41.2,39.1,30.30,ENE,63,0.0,0.0,92,0.00,CLR,,0.00,10.3,WeatherDisplay:10.37,2013-04-24 10:08:00,
2013-04-24 03:13:00,41.1,39.0,30.30,ENE,63,0.0,0.0,92,0.00,CLR,,0.00,10.3,WeatherDisplay:10.37,2013-04-24 10:13:00,
2013-04-24 03:18:00,41.0,38.9,30.30,ENE,63,0.0,0.0,92,0.00,CLR,,0.00,10.3,WeatherDisplay:10.37,2013-04-24 10:18:00,
2013-04-24 03:23:00,41.0,38.9,30.30,ENE,63,0.0,0.0,92,0.00,CLR,,0.00,10.3,WeatherDisplay:10.37,2013-04-24 10:23:00,
2013-04-24 03:28:00,40.9,38.8,30.30,ENE,63,0.0,0.0,92,0.00,CLR,,0.00,10.3,WeatherDisplay:10.37,2013-04-24 10:28:00,
2013-04-24 03:33:00,40.8,38.7,30.30,ENE,63,0.0,0.0,92,0.00,CLR,,0.00,10.3,WeatherDisplay:10.37,2013-04-24 10:33:00,
2013-04-24 03:38:00,40.7,38.6,30.30,ENE,63,0.0,0.0,92,0.00,CLR,,0.00,10.3,WeatherDisplay:10.37,2013-04-24 10:38:00,
2013-04-24 03:43:00,40.6,38.5,30.31,ENE,63,0.0,0.0,92,0.00,CLR,,0.00,10.3,WeatherDisplay:10.37,2013-04-24 10:43:00,
2013-04-24 03:48:00,40.5,38.4,30.31,ENE,63,0.0,0.0,92,0.00,CLR,,0.00,10.3,WeatherDisplay:10.37,2013-04-24 10:48:00,
2013-04-24 03:53:00,40.4,38.3,30.31,ENE,63,0.0,0.0,92,0.00,CLR,,0.00,10.3,WeatherDisplay:10.37,2013-04-24 10:53:00,
2013-04-24 03:58:00,40.3,38.2,30.31,ENE,63,0.0,0.0,92,0.00,CLR,,0.00,10.3,WeatherDisplay:10.37,2013-04-24 10:58:00,
2013-04-24 04:03:00,40.2,38.1,30.31,ENE,63,0.0,0.0,92,0.00,CLR,,0.00,10.3,WeatherDisplay:10.37,2013-04-24 11:03:00,
2013-04-24 04:08:00,40.1,38.0,30.31,ENE,63,0.0,0.0,92,0.00,CLR,,0.00,10.3,WeatherDisplay:10.37,2013-04-24 11:08:00,
2013-04-24 04:13:00,40.0,37.9,30.31,ENE,63,0.0,0.0,92,0.00,CLR,,0.00,10.3,WeatherDisplay:10.37,2013-04-24 11:13:00,
2013-04-24 04:18:00,39.9,37.8,30.31,ENE,63,0.0,0.0,92,0.00,CLR,,0.00,10.3,WeatherDisplay:10.37,2013-04-24 11:18:00,
2013-04-24 04:23:00,39.8,37.7,30.31,ENE,63,0.0,0.0,92,0.00,CLR,,0.00,10.3,WeatherDisplay:10.37,2013-04-24 11:23:00,
2013-04-24 04:28:00,39.6,37.5,30.31,ENE,63,0.0,0.0,92,0.00,CLR,,0.00,10.3,WeatherDisplay:10.37,2013-04-24 11:28:00,
2013-04-24 04:33:00,39.6,37.8,30.31,ENE,61,0.0,0.0,93,0.00,CLR,,0.00,10.3,WeatherDisplay:10.37,2013-04-24 11:33:00,
2013-04-24 04:38:00,39.5,37.7,30.31,NE,52,0.0,0.0,93,0.00,CLR,,0.00,10.3,WeatherDisplay:10.37,2013-04-24 11:38:00,
2013-04-24 04:43:00,39.4,37.3,30.31,East,81,0.0,0.0,92,0.00,CLR,,0.00,10.3,WeatherDisplay:10.37,2013-04-24 11:43:00,
2013-04-24 04:48:00,39.4,37.6,30.31,ESE,117,3.3,4.6,93,0.00,CLR,,0.00,10.3,WeatherDisplay:10.37,2013-04-24 11:48:00,
2013-04-24 04:53:00,39.5,37.7,30.31,SE,124,3.7,4.5,93,0.00,CLR,,0.00,10.3,WeatherDisplay:10.37,2013-04-24 11:53:00,
2013-04-24 04:58:00,39.6,37.8,30.31,ESE,123,4.1,4.6,93,0.00,CLR,,0.00,10.3,WeatherDisplay:10.37,2013-04-24 11:58:00,
2013-04-24 05:03:00,39.8,38.0,30.31,ESE,113,5.3,7.8,93,0.00,CLR,,0.00,10.3,WeatherDisplay:10.37,2013-04-24 12:03:00,
2013-04-24 05:08:00,39.8,38.0,30.31,SE,128,5.2,6.9,93,0.00,CLR,,0.00,10.3,WeatherDisplay:10.37,2013-04-24 12:08:00,
2013-04-24 05:13:00,39.8,38.0,30.31,SE,130,7.5,10.1,93,0.00,CLR,,0.00,10.3,WeatherDisplay:10.37,2013-04-24 12:13:00,
2013-04-24 05:18:00,39.8,38.0,30.31,SE,125,7.8,9.2,93,0.00,CLR,,0.00,10.3,WeatherDisplay:10.37,2013-04-24 12:18:00,
2013-04-24 05:23:00,39.8,38.0,30.31,SE,138,6.8,9.2,93,0.00,CLR,,0.00,10.3,WeatherDisplay:10.37,2013-04-24 12:23:00,
2013-04-24 05:28:00,39.8,38.2,30.31,SE,136,7.0,8.1,94,0.00,CLR,,0.00,10.3,WeatherDisplay:10.37,2013-04-24 12:28:00,
2013-04-24 05:33:00,39.8,38.2,30.31,ESE,119,5.3,6.9,94,0.00,CLR,,0.00,10.3,WeatherDisplay:10.37,2013-04-24 12:33:00,
2013-04-24 05:38:00,39.9,38.3,30.30,ESE,109,0.6,3.5,94,0.00,CLR,,0.00,10.3,WeatherDisplay:10.37,2013-04-24 12:38:00,
2013-04-24 05:43:00,39.9,38.3,30.30,East,94,1.6,4.6,94,0.00,CLR,,0.00,10.3,WeatherDisplay:10.37,2013-04-24 12:43:00,
2013-04-24 05:48:00,39.8,38.2,30.30,ESE,103,0.0,3.5,94,0.00,CLR,,0.00,12.7,WeatherDisplay:10.37,2013-04-24 12:48:00,
2013-04-24 05:53:00,39.8,38.2,30.30,ENE,70,5.7,6.9,94,0.00,CLR,,0.00,13.8,WeatherDisplay:10.37,2013-04-24 12:53:00,
2013-04-24 05:58:00,39.7,37.9,30.30,ENE,63,1.9,4.6,93,0.00,CLR,,0.00,16.1,WeatherDisplay:10.37,2013-04-24 12:58:00,
2013-04-24 06:03:00,39.6,37.8,30.30,ENE,65,3.1,4.6,93,0.00,CLR,,0.00,18.4,WeatherDisplay:10.37,2013-04-24 13:03:00,
2013-04-24 06:08:00,39.5,37.7,30.30,ENE,66,0.6,4.5,93,0.00,CLR,,0.00,21.9,WeatherDisplay:10.37,2013-04-24 13:08:00,
2013-04-24 06:13:00,39.4,37.6,30.31,ENE,66,0.0,0.0,93,0.00,CLR,,0.00,26.4,WeatherDisplay:10.37,2013-04-24 13:13:00,
2013-04-24 06:18:00,39.3,37.5,30.31,ENE,66,0.0,0.0,93,0.00,CLR,,0.00,29.9,WeatherDisplay:10.37,2013-04-24 13:18:00,
2013-04-24 06:23:00,39.1,37.3,30.31,ENE,66,0.0,0.0,93,0.00,CLR,,0.00,38.0,WeatherDisplay:10.37,2013-04-24 13:23:00,
2013-04-24 06:28:00,39.0,37.2,30.31,ENE,66,0.0,0.0,93,0.00,CLR,,0.00,48.3,WeatherDisplay:10.37,2013-04-24 13:28:00,
2013-04-24 06:33:00,38.9,37.1,30.31,ENE,66,0.1,2.3,93,0.00,CLR,,0.00,54.0,WeatherDisplay:10.37,2013-04-24 13:33:00,
2013-04-24 06:38:00,38.8,37.0,30.31,ENE,66,0.0,0.0,93,0.00,CLR,,0.00,72.5,WeatherDisplay:10.37,2013-04-24 13:38:00,
2013-04-24 06:43:00,38.7,36.9,30.31,ENE,66,0.0,0.0,93,0.00,CLR,,0.00,79.3,WeatherDisplay:10.37,2013-04-24 13:43:00,
2013-04-24 06:48:00,38.7,36.9,30.31,ESE,121,0.0,0.0,93,0.00,CLR,,0.00,96.6,WeatherDisplay:10.37,2013-04-24 13:48:00,
2013-04-24 06:53:00,38.7,36.9,30.31,ESE,120,0.0,0.0,93,0.00,CLR,,0.00,107.0,WeatherDisplay:10.37,2013-04-24 13:53:00,
2013-04-24 06:58:00,38.8,37.2,30.30,ESE,120,0.0,0.0,94,0.00,CLR,,0.00,120.8,WeatherDisplay:10.37,2013-04-24 13:58:00,
2013-04-24 07:03:00,38.9,37.3,30.31,ESE,120,0.0,0.0,94,0.00,CLR,,0.00,139.2,WeatherDisplay:10.37,2013-04-24 14:03:00,
2013-04-24 07:08:00,39.0,38.8,30.30,ESE,120,0.2,2.2,99,0.00,CLR,,0.00,143.8,WeatherDisplay:10.37,2013-04-24 14:08:00,
2013-04-24 07:13:00,39.2,37.6,30.30,ESE,121,0.3,1.2,94,0.00,CLR,,0.00,154.1,WeatherDisplay:10.37,2013-04-24 14:13:00,
2013-04-24 07:18:00,39.5,37.9,30.31,ESE,121,0.0,0.0,94,0.00,CLR,,0.00,173.7,WeatherDisplay:10.37,2013-04-24 14:18:00,
2013-04-24 07:23:00,39.7,38.1,30.31,ESE,121,0.0,0.0,94,0.00,CLR,,0.00,187.4,WeatherDisplay:10.37,2013-04-24 14:23:00,
2013-04-24 07:28:00,39.9,38.6,30.31,ESE,121,0.0,0.0,95,0.00,CLR,,0.00,202.4,WeatherDisplay:10.37,2013-04-24 14:28:00,
2013-04-24 07:33:00,40.2,38.9,30.31,ESE,121,0.0,0.0,95,0.00,CLR,,0.00,238.1,WeatherDisplay:10.37,2013-04-24 14:33:00,
2013-04-24 07:38:00,40.4,39.1,30.31,ESE,121,0.0,0.0,95,0.00,CLR,,0.00,254.2,WeatherDisplay:10.37,2013-04-24 14:38:00,
2013-04-24 07:43:00,40.6,39.3,30.31,ESE,103,0.0,1.2,95,0.00,CLR,,0.00,244.9,WeatherDisplay:10.37,2013-04-24 14:43:00,
2013-04-24 07:48:00,40.8,39.5,30.31,ESE,104,0.2,1.2,95,0.00,CLR,,0.00,261.1,WeatherDisplay:10.37,2013-04-24 14:48:00,
2013-04-24 07:53:00,41.0,39.7,30.31,ESE,104,0.0,0.0,95,0.00,CLR,,0.00,269.1,WeatherDisplay:10.37,2013-04-24 14:53:00,
2013-04-24 07:58:00,41.3,40.0,30.31,SE,130,3.2,4.6,95,0.00,CLR,,0.00,282.9,WeatherDisplay:10.37,2013-04-24 14:58:00,
2013-04-24 08:04:00,41.7,40.7,30.31,ESE,112,3.6,4.6,96,0.00,CLR,,0.00,299.0,WeatherDisplay:10.37,2013-04-24 15:04:00,
2013-04-24 08:09:00,42.3,41.3,30.31,ESE,123,3.8,4.6,96,0.00,CLR,,0.00,315.1,WeatherDisplay:10.37,2013-04-24 15:09:00,
2013-04-24 08:14:00,42.7,41.7,30.31,SE,129,0.0,3.5,96,0.00,CLR,,0.00,335.8,WeatherDisplay:10.37,2013-04-24 15:14:00,
2013-04-24 08:19:00,43.0,42.0,30.31,ESE,119,2.8,4.5,96,0.00,CLR,,0.00,349.6,WeatherDisplay:10.37,2013-04-24 15:19:00,
2013-04-24 08:24:00,43.4,42.4,30.31,SE,125,5.1,5.8,96,0.00,CLR,,0.00,368.0,WeatherDisplay:10.37,2013-04-24 15:24:00,
2013-04-24 08:29:00,43.7,42.7,30.31,SE,132,2.4,2.4,96,0.00,CLR,,0.00,384.1,WeatherDisplay:10.37,2013-04-24 15:29:00,
2013-04-24 08:34:00,44.0,43.0,30.31,SE,144,3.7,4.5,96,0.00,CLR,,0.00,402.5,WeatherDisplay:10.37,2013-04-24 15:34:00,
2013-04-24 08:39:00,44.3,43.3,30.31,SSE,149,4.9,6.9,96,0.00,CLR,,0.00,412.9,WeatherDisplay:10.37,2013-04-24 15:39:00,
2013-04-24 08:44:00,44.6,43.6,30.30,SSE,148,1.8,5.8,96,0.00,CLR,,0.00,426.6,WeatherDisplay:10.37,2013-04-24 15:44:00,
2013-04-24 08:49:00,44.8,43.7,30.31,SE,139,4.1,5.8,96,0.00,CLR,,0.00,453.1,WeatherDisplay:10.37,2013-04-24 15:49:00,
2013-04-24 08:54:00,45.0,43.7,30.31,SE,136,5.4,5.8,95,0.00,CLR,,0.00,464.6,WeatherDisplay:10.37,2013-04-24 15:54:00,
2013-04-24 08:59:00,45.3,44.0,30.31,SSE,149,0.7,3.5,95,0.00,CLR,,0.00,479.6,WeatherDisplay:10.37,2013-04-24 15:59:00,
2013-04-24 09:04:00,45.5,44.2,30.31,SSE,148,1.3,2.2,95,0.00,CLR,,0.00,501.4,WeatherDisplay:10.37,2013-04-24 16:04:00,
2013-04-24 09:09:00,45.7,44.4,30.30,SSE,150,1.1,4.6,95,0.00,CLR,,0.00,512.9,WeatherDisplay:10.37,2013-04-24 16:09:00,
2013-04-24 09:14:00,45.8,44.5,30.30,SSE,148,3.8,4.6,95,0.00,CLR,,0.00,531.3,WeatherDisplay:10.37,2013-04-24 16:14:00,
2013-04-24 09:19:00,46.0,44.7,30.30,SE,143,0.0,0.0,95,0.00,CLR,,0.00,554.3,WeatherDisplay:10.37,2013-04-24 16:19:00,
2013-04-24 09:24:00,46.2,44.6,30.30,ESE,109,0.0,0.0,94,0.00,CLR,,0.00,0.0,WeatherDisplay:10.37,2013-04-24 16:24:00,
2013-04-24 09:29:00,46.4,44.8,30.30,ESE,109,0.0,0.0,94,0.00,CLR,,0.00,0.0,WeatherDisplay:10.37,2013-04-24 16:29:00,
2013-04-24 09:34:00,46.6,45.0,30.30,ESE,119,0.0,1.2,94,0.00,CLR,,0.00,0.0,WeatherDisplay:10.37,2013-04-24 16:34:00,
2013-04-24 09:39:00,46.7,44.8,30.30,SE,146,3.9,3.9,93,0.00,CLR,,0.00,0.0,WeatherDisplay:10.37,2013-04-24 16:39:00,
2013-04-24 09:44:00,47.1,45.2,30.30,SSE,148,3.1,3.5,93,0.00,CLR,,0.00,626.8,WeatherDisplay:10.37,2013-04-24 16:44:00,
2013-04-24 09:49:00,47.3,45.1,30.29,SSE,148,1.1,2.3,92,0.00,CLR,,0.00,659.0,WeatherDisplay:10.37,2013-04-24 16:49:00,
2013-04-24 09:54:00,47.6,45.1,30.30,SSE,148,0.0,0.0,91,0.00,CLR,,0.00,683.1,WeatherDisplay:10.37,2013-04-24 16:54:00,
2013-04-24 09:59:00,47.9,45.4,30.30,WSW,248,6.7,6.7,91,0.00,CLR,,0.00,672.8,WeatherDisplay:10.37,2013-04-24 16:59:00,
2013-04-24 10:04:00,48.2,45.4,30.30,West,261,5.1,6.9,90,0.00,CLR,,0.00,680.8,WeatherDisplay:10.37,2013-04-24 17:04:00,
2013-04-24 10:09:00,48.6,45.5,30.30,WSW,238,6.4,6.9,89,0.00,CLR,,0.00,687.7,WeatherDisplay:10.37,2013-04-24 17:09:00,
2013-04-24 10:14:00,49.0,45.9,30.29,WSW,252,3.6,5.8,89,0.00,CLR,,0.00,691.1,WeatherDisplay:10.37,2013-04-24 17:14:00,
2013-04-24 10:19:00,49.3,45.9,30.29,WSW,241,4.2,5.8,88,0.00,CLR,,0.00,714.1,WeatherDisplay:10.37,2013-04-24 17:19:00,
2013-04-24 10:25:00,49.6,45.9,30.29,WSW,242,4.6,5.8,87,0.00,CLR,,0.00,717.6,WeatherDisplay:10.37,2013-04-24 17:25:00,
2013-04-24 10:30:00,49.8,45.5,30.29,WSW,238,6.1,6.9,85,0.00,CLR,,0.00,711.9,WeatherDisplay:10.37,2013-04-24 17:30:00,
2013-04-24 10:35:00,50.0,45.1,30.29,SW,234,7.0,7.0,83,0.00,CLR,,0.00,699.2,WeatherDisplay:10.37,2013-04-24 17:35:00,
2013-04-24 10:40:00,50.2,44.9,30.29,WSW,251,5.9,5.9,82,0.00,CLR,,0.00,717.6,WeatherDisplay:10.37,2013-04-24 17:40:00,
2013-04-24 10:45:00,50.3,44.7,30.29,WSW,246,5.8,6.9,81,0.00,CLR,,0.00,768.2,WeatherDisplay:10.37,2013-04-24 17:45:00,
2013-04-24 10:50:00,50.6,44.7,30.29,WSW,238,5.8,6.9,80,0.00,CLR,,0.00,788.9,WeatherDisplay:10.37,2013-04-24 17:50:00,
2013-04-24 10:55:00,50.9,45.0,30.28,West,261,5.2,6.9,80,0.00,CLR,,0.00,806.1,WeatherDisplay:10.37,2013-04-24 17:55:00,
2013-04-24 11:00:00,51.2,44.9,30.28,West,262,5.4,5.8,79,0.00,CLR,,0.00,788.9,WeatherDisplay:10.37,2013-04-24 18:00:00,
2013-04-24 11:05:00,51.5,45.6,30.28,West,274,5.1,6.9,80,0.00,CLR,,0.00,810.8,WeatherDisplay:10.37,2013-04-24 18:05:00,
2013-04-24 11:10:00,51.6,45.3,30.28,WSW,256,3.3,6.9,79,0.00,CLR,,0.00,826.9,WeatherDisplay:10.37,2013-04-24 18:10:00,
2013-04-24 11:15:00,51.7,45.4,30.28,West,273,0.4,3.5,79,0.00,CLR,,0.00,847.5,WeatherDisplay:10.37,2013-04-24 18:15:00,
2013-04-24 11:20:00,52.0,46.0,30.28,West,270,2.3,4.6,80,0.00,CLR,,0.00,879.8,WeatherDisplay:10.37,2013-04-24 18:20:00,
2013-04-24 11:25:00,52.2,45.9,30.28,West,274,3.0,6.0,79,0.00,CLR,,0.00,851.0,WeatherDisplay:10.37,2013-04-24 18:25:00,
2013-04-24 11:30:00,52.6,46.3,30.28,WNW,296,4.3,5.8,79,0.00,CLR,,0.00,856.8,WeatherDisplay:10.37,2013-04-24 18:30:00,
2013-04-24 11:35:00,52.8,46.1,30.27,WNW,298,6.1,6.1,78,0.00,CLR,,0.00,834.9,WeatherDisplay:10.37,2013-04-24 18:35:00,
2013-04-24 11:40:00,52.8,46.1,30.27,WNW,290,2.9,5.6,78,0.00,CLR,,0.00,863.6,WeatherDisplay:10.37,2013-04-24 18:40:00,
2013-04-24 11:45:00,53.0,46.3,30.27,WNW,303,1.8,4.6,78,0.00,CLR,,0.00,861.4,WeatherDisplay:10.37,2013-04-24 18:45:00,
2013-04-24 11:50:00,53.4,46.7,30.27,WNW,293,0.0,2.2,78,0.00,CLR,,0.00,883.2,WeatherDisplay:10.37,2013-04-24 18:50:00,
2013-04-24 11:55:00,53.8,47.1,30.27,WNW,294,1.4,3.5,78,0.00,CLR,,0.00,863.6,WeatherDisplay:10.37,2013-04-24 18:55:00,
2013-04-24 12:00:00,54.1,46.7,30.27,WNW,297,3.0,5.0,76,0.00,CLR,,0.00,847.5,WeatherDisplay:10.37,2013-04-24 19:00:00,
2013-04-24 12:05:00,54.5,47.1,30.26,NW,310,0.0,0.0,76,0.00,CLR,,0.00,877.5,WeatherDisplay:10.37,2013-04-24 19:05:00,
2013-04-24 12:10:00,54.6,46.9,30.26,NW,307,1.4,3.5,75,0.00,CLR,,0.00,885.5,WeatherDisplay:10.37,2013-04-24 19:10:00,
2013-04-24 12:15:00,54.7,46.9,30.26,NW,309,2.9,5.8,75,0.00,CLR,,0.00,853.3,WeatherDisplay:10.37,2013-04-24 19:15:00,
2013-04-24 12:20:00,54.9,46.8,30.25,WNW,286,2.9,5.8,74,0.00,CLR,,0.00,952.2,WeatherDisplay:10.37,2013-04-24 19:20:00,
2013-04-24 12:25:00,55.1,47.0,30.25,WNW,297,4.7,5.8,74,0.00,CLR,,0.00,952.2,WeatherDisplay:10.37,2013-04-24 19:25:00,
2013-04-24 12:30:00,55.2,46.7,30.25,West,261,3.8,5.8,73,0.00,CLR,,0.00,955.6,WeatherDisplay:10.37,2013-04-24 19:30:00,
2013-04-24 12:35:00,55.2,46.7,30.25,WNW,294,5.3,5.8,73,0.00,CLR,,0.00,955.6,WeatherDisplay:10.37,2013-04-24 19:35:00,
2013-04-24 12:40:00,55.1,46.6,30.25,WNW,292,5.8,6.9,73,0.00,CLR,,0.00,955.6,WeatherDisplay:10.37,2013-04-24 19:40:00,
2013-04-24 12:45:00,55.0,46.9,30.25,WNW,296,6.2,8.1,74,0.00,CLR,,0.00,960.3,WeatherDisplay:10.37,2013-04-24 19:45:00,
2013-04-24 12:50:00,55.2,47.1,30.25,WNW,302,6.1,8.1,74,0.00,CLR,,0.00,963.7,WeatherDisplay:10.37,2013-04-24 19:50:00,
2013-04-24 12:55:00,55.5,48.1,30.25,NW,306,5.7,6.9,76,0.00,CLR,,0.00,960.3,WeatherDisplay:10.37,2013-04-24 19:55:00,
2013-04-24 13:00:00,55.8,47.7,30.25,NW,309,3.4,5.8,74,0.00,CLR,,0.00,966.0,WeatherDisplay:10.37,2013-04-24 20:00:00,
2013-04-24 13:05:00,56.1,47.2,30.24,WNW,295,4.5,5.8,72,0.00,CLR,,0.00,968.3,WeatherDisplay:10.37,2013-04-24 20:05:00,
2013-04-24 13:10:00,56.2,47.7,30.24,WNW,300,3.7,5.8,73,0.00,CLR,,0.00,970.6,WeatherDisplay:10.37,2013-04-24 20:10:00,
2013-04-24 13:15:00,56.2,47.7,30.24,NW,304,2.6,5.6,73,0.00,CLR,,0.00,968.3,WeatherDisplay:10.37,2013-04-24 20:15:00,
2013-04-24 13:22:00,56.6,47.3,30.23,WNW,284,5.5,5.5,71,0.00,CLR,,0.00,966.0,WeatherDisplay:10.37,2013-04-24 20:22:00,
2013-04-24 13:27:00,56.8,47.9,30.23,WNW,300,3.4,5.8,72,0.00,CLR,,0.00,970.6,WeatherDisplay:10.37,2013-04-24 20:27:00,
2013-04-24 13:32:00,57.0,47.7,30.23,WNW,290,2.9,4.6,71,0.00,CLR,,0.00,966.0,WeatherDisplay:10.37,2013-04-24 20:32:00,
2013-04-24 13:37:00,57.4,47.7,30.23,WNW,301,3.3,4.6,70,0.00,CLR,,0.00,966.0,WeatherDisplay:10.37,2013-04-24 20:37:00,
2013-04-24 13:42:00,57.7,48.0,30.22,WNW,294,4.6,5.8,70,0.00,CLR,,0.00,968.3,WeatherDisplay:10.37,2013-04-24 20:42:00,
2013-04-24 13:47:00,57.8,48.1,30.22,WNW,302,4.2,5.8,70,0.00,CLR,,0.00,962.5,WeatherDisplay:10.37,2013-04-24 20:47:00,
2013-04-24 13:52:00,57.8,47.7,30.22,WNW,296,4.4,5.8,69,0.00,CLR,,0.00,936.1,WeatherDisplay:10.37,2013-04-24 20:52:00,
2013-04-24 13:57:00,57.7,47.6,30.22,WNW,299,3.7,6.9,69,0.00,CLR,,0.00,922.3,WeatherDisplay:10.37,2013-04-24 20:57:00,
2013-04-24 14:02:00,57.8,47.7,30.22,WNW,297,4.5,4.5,69,0.00,CLR,,0.00,928.0,WeatherDisplay:10.37,2013-04-24 21:02:00,
2013-04-24 14:07:00,57.6,46.7,30.21,WNW,298,4.1,5.8,67,0.00,CLR,,0.00,944.1,WeatherDisplay:10.37,2013-04-24 21:07:00,
2013-04-24 14:12:00,57.3,46.5,30.21,WNW,300,4.1,4.6,67,0.00,CLR,,0.00,941.9,WeatherDisplay:10.37,2013-04-24 21:12:00,
2013-04-24 14:17:00,57.1,46.3,30.21,WNW,300,3.4,4.6,67,0.00,CLR,,0.00,923.5,WeatherDisplay:10.37,2013-04-24 21:17:00,
2013-04-24 14:22:00,57.3,46.8,30.21,WNW,298,3.2,5.8,68,0.00,CLR,,0.00,949.9,WeatherDisplay:10.37,2013-04-24 21:22:00,
2013-04-24 14:27:00,57.5,47.0,30.20,WNW,303,1.8,4.6,68,0.00,CLR,,0.00,920.0,WeatherDisplay:10.37,2013-04-24 21:27:00,
2013-04-24 14:33:00,57.8,46.9,30.20,NW,308,4.2,4.6,67,0.00,CLR,,0.00,832.6,WeatherDisplay:10.37,2013-04-24 21:33:00,
2013-04-24 14:38:00,58.1,46.8,30.20,NW,315,2.6,4.6,66,0.00,CLR,,0.00,845.3,WeatherDisplay:10.37,2013-04-24 21:38:00,
2013-04-24 14:43:00,58.4,46.3,30.20,NW,304,3.4,4.6,64,0.00,CLR,,0.00,821.1,WeatherDisplay:10.37,2013-04-24 21:43:00,
2013-04-24 14:48:00,58.5,45.5,30.20,WNW,303,4.1,5.6,62,0.00,CLR,,0.00,897.0,WeatherDisplay:10.37,2013-04-24 21:48:00,
2013-04-24 14:53:00,58.6,46.5,30.20,NW,314,5.1,6.9,64,0.00,CLR,,0.00,899.3,WeatherDisplay:10.37,2013-04-24 21:53:00,
2013-04-24 14:58:00,58.4,45.4,30.20,WNW,299,4.6,5.8,62,0.00,CLR,,0.00,879.8,WeatherDisplay:10.37,2013-04-24 21:58:00,
2013-04-24 15:03:00,58.5,46.4,30.19,NW,312,5.0,6.9,64,0.00,CLR,,0.00,859.0,WeatherDisplay:10.37,2013-04-24 22:03:00,
2013-04-24 15:08:00,58.5,45.5,30.19,NW,307,3.5,5.8,62,0.00,CLR,,0.00,838.4,WeatherDisplay:10.37,2013-04-24 22:08:00,
2013-04-24 15:13:00,59.0,46.4,30.19,NW,317,5.8,6.9,63,0.00,CLR,,0.00,861.4,WeatherDisplay:10.37,2013-04-24 22:13:00,
2013-04-24 15:18:00,58.9,45.9,30.19,NW,308,5.7,6.9,62,0.00,CLR,,0.00,851.0,WeatherDisplay:10.37,2013-04-24 22:18:00,
2013-04-24 15:23:00,59.1,45.7,30.18,NW,306,4.3,5.8,61,0.00,CLR,,0.00,845.3,WeatherDisplay:10.37,2013-04-24 22:23:00,
2013-04-24 15:28:00,59.2,46.6,30.18,WNW,295,4.1,6.9,63,0.00,CLR,,0.00,780.9,WeatherDisplay:10.37,2013-04-24 22:28:00,
2013-04-24 15:33:00,59.3,46.3,30.18,NW,320,2.7,4.6,62,0.00,CLR,,0.00,780.9,WeatherDisplay:10.37,2013-04-24 22:33:00,
2013-04-24 15:38:00,59.6,46.6,30.18,NW,318,1.8,4.6,62,0.00,CLR,,0.00,802.7,WeatherDisplay:10.37,2013-04-24 22:38:00,
2013-04-24 15:43:00,60.7,48.0,30.17,NNW,329,1.3,4.5,63,0.00,CLR,,0.00,818.8,WeatherDisplay:10.37,2013-04-24 22:43:00,
2013-04-24 15:48:00,61.5,47.9,30.17,NNW,336,2.4,4.6,61,0.00,CLR,,0.00,778.5,WeatherDisplay:10.37,2013-04-24 22:48:00,
2013-04-24 15:53:00,62.1,48.5,30.17,NNW,334,0.9,3.5,61,0.00,CLR,,0.00,624.5,WeatherDisplay:10.37,2013-04-24 22:53:00,
2013-04-24 15:58:00,62.2,46.8,30.17,NNW,327,0.3,3.5,57,0.00,CLR,,0.00,719.9,WeatherDisplay:10.37,2013-04-24 22:58:00,
2013-04-24 16:03:00,62.2,47.3,30.17,NNW,327,0.2,1.1,58,0.00,CLR,,0.00,730.3,WeatherDisplay:10.37,2013-04-24 23:03:00,
2013-04-24 16:08:00,62.4,47.0,30.16,NNW,327,0.2,1.2,57,0.00,CLR,,0.00,691.1,WeatherDisplay:10.37,2013-04-24 23:08:00,
2013-04-24 16:13:00,62.5,46.6,30.16,NNW,327,0.1,1.2,56,0.00,CLR,,0.00,578.5,WeatherDisplay:10.37,2013-04-24 23:13:00,
2013-04-24 16:18:00,62.5,46.1,30.16,NW,326,0.0,1.2,55,0.00,CLR,,0.00,614.1,WeatherDisplay:10.37,2013-04-24 23:18:00,
2013-04-24 16:23:00,62.3,45.5,30.16,NW,326,0.0,0.0,54,0.00,CLR,,0.00,512.9,WeatherDisplay:10.37,2013-04-24 23:23:00,
2013-04-24 16:28:00,62.3,46.4,30.15,NW,326,0.0,0.0,56,0.00,CLR,,0.00,487.6,WeatherDisplay:10.37,2013-04-24 23:28:00,
2013-04-24 16:33:00,62.3,46.9,30.15,NW,326,0.0,1.2,57,0.00,CLR,,0.00,400.2,WeatherDisplay:10.37,2013-04-24 23:33:00,
2013-04-24 16:38:00,62.1,48.1,30.15,NW,326,0.0,0.0,60,0.00,CLR,,0.00,392.1,WeatherDisplay:10.37,2013-04-24 23:38:00,
2013-04-24 16:43:00,61.8,46.9,30.14,NW,326,0.0,0.0,58,0.00,CLR,,0.00,343.9,WeatherDisplay:10.37,2013-04-24 23:43:00,
2013-04-24 16:48:00,61.6,47.1,30.14,NW,326,0.0,0.0,59,0.00,CLR,,0.00,416.3,WeatherDisplay:10.37,2013-04-24 23:48:00,
2013-04-24 16:53:00,61.3,46.4,30.14,NW,326,0.0,0.0,58,0.00,CLR,,0.00,438.1,WeatherDisplay:10.37,2013-04-24 23:53:00,
2013-04-24 16:58:00,61.2,46.8,30.14,NW,326,0.0,0.0,59,0.00,CLR,,0.00,271.4,WeatherDisplay:10.37,2013-04-24 23:58:00,
2013-04-24 17:03:00,61.2,46.3,30.13,WSW,254,0.0,0.0,58,0.00,CLR,,0.00,312.8,WeatherDisplay:10.37,2013-04-25 00:03:00,
2013-04-24 17:08:00,61.2,46.8,30.13,WSW,254,0.0,0.0,59,0.00,CLR,,0.00,496.8,WeatherDisplay:10.37,2013-04-25 00:08:00,
2013-04-24 17:13:00,61.3,45.5,30.13,WSW,255,0.0,0.0,56,0.00,CLR,,0.00,630.2,WeatherDisplay:10.37,2013-04-25 00:13:00,
2013-04-24 17:18:00,61.7,45.4,30.13,WSW,248,0.0,0.0,55,0.00,CLR,,0.00,499.1,WeatherDisplay:10.37,2013-04-25 00:18:00,
2013-04-24 17:23:00,62.3,47.3,30.12,South,179,3.4,3.5,58,0.00,CLR,,0.00,517.5,WeatherDisplay:10.37,2013-04-25 00:23:00,
2013-04-24 17:28:00,62.8,45.4,30.12,South,171,3.6,3.6,53,0.00,CLR,,0.00,420.9,WeatherDisplay:10.37,2013-04-25 00:28:00,
2013-04-24 17:33:00,62.7,42.7,30.11,SSE,151,3.0,4.6,48,0.00,CLR,,0.00,512.9,WeatherDisplay:10.37,2013-04-25 00:33:00,
2013-04-24 17:38:00,62.6,41.5,30.11,SSE,152,4.3,4.6,46,0.00,CLR,,0.00,483.0,WeatherDisplay:10.37,2013-04-25 00:38:00,
2013-04-24 17:43:00,62.6,41.5,30.11,SSE,154,4.2,5.8,46,0.00,CLR,,0.00,448.5,WeatherDisplay:10.37,2013-04-25 00:43:00,
2013-04-24 17:48:00,62.7,41.6,30.11,SSE,157,0.1,0.0,46,0.00,CLR,,0.00,428.9,WeatherDisplay:10.37,2013-04-25 00:48:00,
2013-04-24 17:53:00,62.9,41.8,30.11,SSE,157,0.6,3.5,46,0.00,CLR,,0.00,414.0,WeatherDisplay:10.37,2013-04-25 00:53:00,
2013-04-24 17:58:00,63.2,43.2,30.10,SSE,157,0.0,0.0,48,0.00,CLR,,0.00,414.0,WeatherDisplay:10.37,2013-04-25 00:58:00,
2013-04-24 18:03:00,63.7,44.2,30.10,SSE,157,0.0,0.0,49,0.00,CLR,,0.00,418.6,WeatherDisplay:10.37,2013-04-25 01:03:00,
2013-04-24 18:08:00,64.1,43.5,30.10,SSE,157,0.0,0.0,47,0.00,CLR,,0.00,319.7,WeatherDisplay:10.37,2013-04-25 01:08:00,
2013-04-24 18:13:00,64.5,43.8,30.10,SSE,155,0.0,0.0,47,0.00,CLR,,0.00,357.6,WeatherDisplay:10.37,2013-04-25 01:13:00,
2013-04-24 18:18:00,64.9,44.2,30.10,SSE,148,0.0,0.0,47,0.00,CLR,,0.00,331.2,WeatherDisplay:10.37,2013-04-25 01:18:00,
2013-04-24 18:23:00,65.2,43.3,30.09,SE,146,0.0,0.0,45,0.00,CLR,,0.00,307.1,WeatherDisplay:10.37,2013-04-25 01:23:00,
2013-04-24 18:28:00,65.5,42.4,30.10,SE,146,0.0,0.0,43,0.00,CLR,,0.00,285.2,WeatherDisplay:10.37,2013-04-25 01:28:00,
2013-04-24 18:33:00,65.8,42.1,30.09,SSE,147,0.0,0.0,42,0.00,CLR,,0.00,274.9,WeatherDisplay:10.37,2013-04-25 01:33:00,
2013-04-24 18:38:00,66.1,41.7,30.09,SSE,147,0.0,0.0,41,0.00,CLR,,0.00,258.8,WeatherDisplay:10.37,2013-04-25 01:38:00,
2013-04-24 18:44:00,66.2,39.8,30.09,SSE,150,0.0,0.0,38,0.00,CLR,,0.00,238.1,WeatherDisplay:10.37,2013-04-25 01:44:00,
2013-04-24 18:49:00,66.2,39.2,30.08,SSE,165,0.0,0.0,37,0.00,CLR,,0.00,224.3,WeatherDisplay:10.37,2013-04-25 01:49:00,
2013-04-24 18:54:00,66.1,41.7,30.08,East,88,0.0,0.0,41,0.00,CLR,,0.00,208.2,WeatherDisplay:10.37,2013-04-25 01:54:00,
2013-04-24 18:59:00,65.9,39.6,30.08,SE,126,0.0,0.0,38,0.00,CLR,,0.00,186.3,WeatherDisplay:10.37,2013-04-25 01:59:00,
2013-04-24 19:04:00,65.7,41.4,30.08,SE,126,0.0,0.0,41,0.00,CLR,,0.00,159.8,WeatherDisplay:10.37,2013-04-25 02:04:00,
2013-04-24 19:09:00,65.4,39.8,30.08,SE,126,0.0,0.0,39,0.00,CLR,,0.00,151.8,WeatherDisplay:10.37,2013-04-25 02:09:00,
2013-04-24 19:14:00,65.2,39.6,30.08,SE,140,0.0,0.0,39,0.00,CLR,,0.00,111.5,WeatherDisplay:10.37,2013-04-25 02:14:00,
2013-04-24 19:19:00,64.9,40.6,30.08,SE,140,0.0,0.0,41,0.00,CLR,,0.00,74.8,WeatherDisplay:10.37,2013-04-25 02:19:00,
2013-04-24 19:24:00,64.5,39.6,30.08,SE,140,0.0,0.0,40,0.00,CLR,,0.00,64.4,WeatherDisplay:10.37,2013-04-25 02:24:00,
2013-04-24 19:29:00,64.0,41.1,30.07,SSE,153,0.0,0.0,43,0.00,CLR,,0.00,56.4,WeatherDisplay:10.37,2013-04-25 02:29:00,
2013-04-24 19:34:00,63.4,41.7,30.07,SSE,153,2.3,3.5,45,0.00,CLR,,0.00,54.0,WeatherDisplay:10.37,2013-04-25 02:34:00,
2013-04-24 19:39:00,62.7,41.1,30.07,SSE,153,0.0,0.0,45,0.00,CLR,,0.00,58.6,WeatherDisplay:10.37,2013-04-25 02:39:00,
2013-04-24 19:44:00,62.0,43.2,30.07,SSE,153,0.0,0.0,50,0.00,CLR,,0.00,52.9,WeatherDisplay:10.37,2013-04-25 02:44:00,
2013-04-24 19:49:00,61.2,42.9,30.07,SSE,153,0.0,0.0,51,0.00,CLR,,0.00,38.0,WeatherDisplay:10.37,2013-04-25 02:49:00,
2013-04-24 19:54:00,60.5,43.3,30.06,SSE,153,0.0,0.0,53,0.00,CLR,,0.00,29.9,WeatherDisplay:10.37,2013-04-25 02:54:00,
2013-04-24 19:59:00,59.7,43.0,30.06,SSE,153,0.0,0.0,54,0.00,CLR,,0.00,24.1,WeatherDisplay:10.37,2013-04-25 02:59:00,
2013-04-24 20:04:00,59.1,42.5,30.06,SSE,153,0.0,0.0,54,0.00,CLR,,0.00,20.7,WeatherDisplay:10.37,2013-04-25 03:04:00,
2013-04-24 20:09:00,58.6,42.5,30.06,SSE,153,0.0,1.2,55,0.00,CLR,,0.00,16.1,WeatherDisplay:10.37,2013-04-25 03:09:00,
2013-04-24 20:14:00,58.2,42.6,30.06,SSE,153,0.0,1.2,56,0.00,CLR,,0.00,12.7,WeatherDisplay:10.37,2013-04-25 03:14:00,
2013-04-24 20:19:00,57.8,41.7,30.06,SSE,153,0.0,0.0,55,0.00,CLR,,0.00,8.1,WeatherDisplay:10.37,2013-04-25 03:19:00,
2013-04-24 20:24:00,57.4,41.8,30.06,SE,144,0.0,0.0,56,0.00,CLR,,0.00,5.8,WeatherDisplay:10.37,2013-04-25 03:24:00,
2013-04-24 20:29:00,57.0,41.9,30.06,SE,144,1.1,2.3,57,0.00,CLR,,0.00,5.8,WeatherDisplay:10.37,2013-04-25 03:29:00,
2013-04-24 20:34:00,56.5,42.4,30.06,SE,144,0.0,0.0,59,0.00,CLR,,0.00,0.0,WeatherDisplay:10.37,2013-04-25 03:34:00,
2013-04-24 20:39:00,56.1,42.0,30.06,SE,144,0.0,0.0,59,0.00,CLR,,0.00,0.0,WeatherDisplay:10.37,2013-04-25 03:39:00,
2013-04-24 20:44:00,55.6,42.4,30.06,SE,144,1.4,2.3,61,0.00,CLR,,0.00,0.0,WeatherDisplay:10.37,2013-04-25 03:44:00,
2013-04-24 20:49:00,55.2,42.0,30.06,SE,144,0.7,2.3,61,0.00,CLR,,0.00,0.0,WeatherDisplay:10.37,2013-04-25 03:49:00,
2013-04-24 20:54:00,54.8,42.0,30.06,SE,144,1.8,2.3,62,0.00,CLR,,0.00,0.0,WeatherDisplay:10.37,2013-04-25 03:54:00,
2013-04-24 20:59:00,54.4,42.5,30.06,SE,127,2.1,3.5,64,0.00,CLR,,0.00,0.0,WeatherDisplay:10.37,2013-04-25 03:59:00,
2013-04-24 21:01:00,54.2,42.3,30.06,SE,127,0.6,2.3,64,0.00,CLR,,0.00,0.0,WeatherDisplay:10.37,2013-04-25 04:01:00,
2013-04-24 21:06:00,53.8,42.3,30.06,SE,127,2.3,2.3,65,0.00,CLR,,0.00,0.0,WeatherDisplay:10.37,2013-04-25 04:06:00,
2013-04-24 21:11:00,53.4,42.3,30.06,SE,127,2.5,2.5,66,0.00,CLR,,0.00,0.0,WeatherDisplay:10.37,2013-04-25 04:11:00,
2013-04-24 21:16:00,53.0,42.4,30.06,SE,127,2.0,3.5,67,0.00,CLR,,0.00,0.0,WeatherDisplay:10.37,2013-04-25 04:16:00,
2013-04-24 21:21:00,52.8,42.2,30.05,SE,124,3.0,3.5,67,0.00,CLR,,0.00,0.0,WeatherDisplay:10.37,2013-04-25 04:21:00,
2013-04-24 21:26:00,52.5,42.3,30.06,SE,124,2.1,3.4,68,0.00,CLR,,0.00,0.0,WeatherDisplay:10.37,2013-04-25 04:26:00,
2013-04-24 21:31:00,52.2,42.0,30.05,SE,124,3.0,3.5,68,0.00,CLR,,0.00,0.0,WeatherDisplay:10.37,2013-04-25 04:31:00,
2013-04-24 21:36:00,52.0,42.2,30.05,SE,124,0.2,0.0,69,0.00,CLR,,0.00,0.0,WeatherDisplay:10.37,2013-04-25 04:36:00,
2013-04-24 21:41:00,51.8,42.0,30.05,SE,124,2.4,2.4,69,0.00,CLR,,0.00,0.0,WeatherDisplay:10.37,2013-04-25 04:41:00,
2013-04-24 21:46:00,51.6,42.2,30.05,ESE,116,0.9,2.3,70,0.00,CLR,,0.00,0.0,WeatherDisplay:10.37,2013-04-25 04:46:00,
2013-04-24 21:51:00,51.4,42.0,30.05,ESE,116,0.0,0.0,70,0.00,CLR,,0.00,0.0,WeatherDisplay:10.37,2013-04-25 04:51:00,
2013-04-24 21:56:00,51.3,42.6,30.06,ESE,116,0.0,0.0,72,0.00,CLR,,0.00,0.0,WeatherDisplay:10.37,2013-04-25 04:56:00,
2013-04-24 22:01:00,51.1,42.8,30.05,ESE,116,0.0,0.0,73,0.00,CLR,,0.00,0.0,WeatherDisplay:10.37,2013-04-25 05:01:00,
2013-04-24 22:06:00,51.1,43.5,30.05,ESE,116,0.0,0.0,75,0.00,CLR,,0.00,0.0,WeatherDisplay:10.37,2013-04-25 05:06:00,
2013-04-24 22:11:00,51.0,43.4,30.06,ENE,65,3.3,3.5,75,0.00,CLR,,0.00,0.0,WeatherDisplay:10.37,2013-04-25 05:11:00,
2013-04-24 22:16:00,50.8,42.8,30.06,ENE,65,0.0,0.0,74,0.00,CLR,,0.00,0.0,WeatherDisplay:10.37,2013-04-25 05:16:00,
2013-04-24 22:21:00,50.7,43.1,30.06,ENE,65,0.0,0.0,75,0.00,CLR,,0.00,0.0,WeatherDisplay:10.37,2013-04-25 05:21:00,
2013-04-24 22:26:00,50.6,43.0,30.06,ENE,65,3.3,3.5,75,0.00,CLR,,0.00,0.0,WeatherDisplay:10.37,2013-04-25 05:26:00,
2013-04-24 22:31:00,50.5,42.9,30.06,ENE,71,0.3,1.1,75,0.00,CLR,,0.00,0.0,WeatherDisplay:10.37,2013-04-25 05:31:00,
2013-04-24 22:36:00,50.4,42.8,30.05,ESE,107,2.9,3.5,75,0.00,CLR,,0.00,0.0,WeatherDisplay:10.37,2013-04-25 05:36:00,
2013-04-24 22:41:00,50.3,43.0,30.05,ESE,107,0.0,0.0,76,0.00,CLR,,0.00,0.0,WeatherDisplay:10.37,2013-04-25 05:41:00,
2013-04-24 22:46:00,50.2,42.9,30.05,ESE,107,0.0,0.0,76,0.00,CLR,,0.00,0.0,WeatherDisplay:10.37,2013-04-25 05:46:00,
2013-04-24 22:51:00,50.1,43.2,30.05,ESE,107,0.0,0.0,77,0.00,CLR,,0.00,0.0,WeatherDisplay:10.37,2013-04-25 05:51:00,
2013-04-24 22:56:00,50.0,43.1,30.05,ESE,107,0.0,0.0,77,0.00,CLR,,0.00,0.0,WeatherDisplay:10.37,2013-04-25 05:56:00,
2013-04-24 23:01:00,49.9,43.3,30.05,ESE,107,0.0,0.0,78,0.00,CLR,,0.00,0.0,WeatherDisplay:10.37,2013-04-25 06:01:00,
2013-04-24 23:06:00,49.8,43.6,30.05,East,83,0.0,0.0,79,0.00,CLR,,0.00,0.0,WeatherDisplay:10.37,2013-04-25 06:06:00,
2013-04-24 23:11:00,49.7,43.5,30.05,East,83,0.0,0.0,79,0.00,CLR,,0.00,0.0,WeatherDisplay:10.37,2013-04-25 06:11:00,
2013-04-24 23:16:00,49.6,43.4,30.05,East,83,0.0,0.0,79,0.00,CLR,,0.00,0.0,WeatherDisplay:10.37,2013-04-25 06:16:00,
2013-04-24 23:21:00,49.5,43.3,30.05,East,83,0.0,0.0,79,0.00,CLR,,0.00,0.0,WeatherDisplay:10.37,2013-04-25 06:21:00,
2013-04-24 23:26:00,49.4,43.5,30.04,East,83,0.0,0.0,80,0.00,CLR,,0.00,0.0,WeatherDisplay:10.37,2013-04-25 06:26:00,
2013-04-24 23:31:00,49.3,43.4,30.04,East,83,0.0,0.0,80,0.00,CLR,,0.00,0.0,WeatherDisplay:10.37,2013-04-25 06:31:00,
2013-04-24 23:37:00,49.1,43.2,30.04,East,83,0.0,0.0,80,0.00,CLR,,0.00,0.0,WeatherDisplay:10.37,2013-04-25 06:37:00,
2013-04-24 23:42:00,49.0,42.8,30.03,East,83,0.0,0.0,79,0.00,CLR,,0.00,0.0,WeatherDisplay:10.37,2013-04-25 06:42:00,
2013-04-24 23:47:00,48.8,42.6,30.04,East,83,2.0,2.3,79,0.00,CLR,,0.00,0.0,WeatherDisplay:10.37,2013-04-25 06:47:00,
2013-04-24 23:52:00,48.6,42.4,30.03,East,83,2.2,2.3,79,0.00,CLR,,0.00,0.0,WeatherDisplay:10.37,2013-04-25 06:52:00,
2013-04-24 23:57:00,48.4,41.9,30.04,East,83,0.0,0.0,78,0.00,CLR,,0.00,0.0,WeatherDisplay:10.37,2013-04-25 06:57:00,